Time;durP1;ratioP1;P1;durP2;ratioP2;P2;SDS_P1;SDS_P2;PMS_P1;PMS_P2;Temp;Humidity;BMP_temperature;BMP_pressure;BME280_temperature;BME280_humidity;BME280_pressure;Samples;Min_cycle;Max_cycle;Signal;HPM_P1;HPM_P2
2021/06/03 00:01:44;;;;;;;2.45;1.60;;;23.60;33.20;;;;;;5022069;28;20725;-45
2021/06/03 00:04:10;;;;;;;2.25;1.58;;;23.70;33.30;;;;;;5014937;28;20226;-46
2021/06/03 00:06:36;;;;;;;2.55;1.80;;;23.60;33.10;;;;;;5011738;28;20226;-46
2021/06/03 00:09:02;;;;;;;2.05;1.50;;;23.60;33.10;;;;;;4994187;28;20200;-48
2021/06/03 00:11:28;;;;;;;1.63;1.52;;;23.60;33.10;;;;;;5004728;28;20219;-47
2021/06/03 00:13:54;;;;;;;2.30;1.60;;;23.60;33.10;;;;;;5016753;28;20203;-50
2021/06/03 00:16:20;;;;;;;1.65;1.50;;;23.60;33.10;;;;;;5013691;28;20203;-48
2021/06/03 00:18:46;;;;;;;2.78;1.58;;;23.60;33.10;;;;;;5029213;28;20203;-49
2021/06/03 00:21:12;;;;;;;1.65;1.55;;;23.60;33.20;;;;;;5015217;28;20223;-46
2021/06/03 00:23:38;;;;;;;2.03;1.80;;;23.60;33.10;;;;;;5017896;28;20226;-49
2021/06/03 00:26:04;;;;;;;1.67;1.58;;;23.60;33.10;;;;;;5014141;28;20207;-44
2021/06/03 00:28:30;;;;;;;1.67;1.58;;;23.60;33.20;;;;;;5025914;28;20198;-49
2021/06/03 00:30:56;;;;;;;1.60;1.50;;;23.60;33.20;;;;;;5024159;28;20254;-47
2021/06/03 00:33:24;;;;;;;2.05;1.65;;;23.60;33.20;;;;;;5022680;28;20231;-48
2021/06/03 00:35:50;;;;;;;1.80;1.70;;;23.60;33.20;;;;;;5014202;28;20199;-49
2021/06/03 00:38:16;;;;;;;2.13;1.80;;;23.60;33.20;;;;;;5022113;28;20211;-50
2021/06/03 00:40:42;;;;;;;1.70;1.60;;;23.60;33.20;;;;;;5014883;28;20270;-53
2021/06/03 00:43:08;;;;;;;1.70;1.60;;;23.60;33.20;;;;;;5013705;28;20207;-49
2021/06/03 00:45:34;;;;;;;1.60;1.50;;;23.60;33.30;;;;;;5014447;28;20301;-48
2021/06/03 00:48:00;;;;;;;1.95;1.85;;;23.60;33.20;;;;;;5028093;28;20206;-49
2021/06/03 00:50:26;;;;;;;1.60;1.50;;;23.60;33.20;;;;;;5013231;28;20222;-47
2021/06/03 00:52:52;;;;;;;1.67;1.58;;;23.60;33.30;;;;;;5017057;28;20214;-49
2021/06/03 00:55:18;;;;;;;1.80;1.50;;;23.60;33.20;;;;;;5016383;28;20206;-51
2021/06/03 00:57:44;;;;;;;1.58;1.48;;;23.60;33.20;;;;;;5011313;28;20215;-50
2021/06/03 01:00:10;;;;;;;1.67;1.52;;;23.60;33.20;;;;;;5014925;28;20215;-49
2021/06/03 01:02:36;;;;;;;2.13;1.80;;;23.60;33.30;;;;;;5012950;28;20242;-49
2021/06/03 01:05:02;;;;;;;1.70;1.60;;;23.60;33.30;;;;;;5012133;28;20234;-47
2021/06/03 01:07:28;;;;;;;1.58;1.48;;;23.60;33.30;;;;;;5007061;28;20721;-45
2021/06/03 01:09:54;;;;;;;1.73;1.50;;;23.60;33.20;;;;;;5014166;28;20226;-51
2021/06/03 01:12:20;;;;;;;2.05;1.85;;;23.60;33.20;;;;;;5013846;28;20211;-45
2021/06/03 01:14:46;;;;;;;1.60;1.50;;;23.60;33.20;;;;;;5013980;28;20203;-49
2021/06/03 01:17:12;;;;;;;1.88;1.70;;;23.60;33.30;;;;;;5012588;28;20207;-45
2021/06/03 01:19:38;;;;;;;1.88;1.70;;;23.60;33.30;;;;;;5013609;28;20617;-49
2021/06/03 01:22:04;;;;;;;1.85;1.75;;;23.60;33.30;;;;;;5012817;28;20207;-46
2021/06/03 01:24:30;;;;;;;1.60;1.50;;;23.60;33.30;;;;;;5013192;28;20233;-47
2021/06/03 01:26:56;;;;;;;1.73;1.58;;;23.60;33.30;;;;;;5012577;28;20419;-50
2021/06/03 01:29:22;;;;;;;2.03;1.83;;;23.60;33.30;;;;;;5012206;28;20281;-49
2021/06/03 01:31:47;;;;;;;1.63;1.52;;;23.60;33.20;;;;;;5012960;28;20210;-46
2021/06/03 01:34:13;;;;;;;1.90;1.80;;;23.60;33.30;;;;;;5012015;28;20651;-47
2021/06/03 01:36:39;;;;;;;1.80;1.50;;;23.60;33.30;;;;;;5012979;28;20199;-48
2021/06/03 01:39:05;;;;;;;2.58;1.77;;;23.60;33.20;;;;;;5018513;28;20198;-47
2021/06/03 01:41:31;;;;;;;1.80;1.60;;;23.60;33.30;;;;;;5032712;28;20209;-48
2021/06/03 01:43:57;;;;;;;1.85;1.50;;;23.60;33.50;;;;;;5020779;28;20214;-49
2021/06/03 01:46:23;;;;;;;2.63;1.60;;;23.60;33.50;;;;;;5012529;28;20229;-48
2021/06/03 01:48:49;;;;;;;1.83;1.73;;;23.60;33.50;;;;;;5011343;28;20195;-47
2021/06/03 01:51:15;;;;;;;1.58;1.48;;;23.60;33.50;;;;;;5011874;28;20214;-51
2021/06/03 01:53:41;;;;;;;2.33;1.83;;;23.60;33.50;;;;;;5015389;28;20199;-49
2021/06/03 01:56:07;;;;;;;2.70;1.70;;;23.60;33.60;;;;;;5022715;28;20294;-50
2021/06/03 01:58:33;;;;;;;1.67;1.50;;;23.60;33.60;;;;;;5010745;28;20958;-48
2021/06/03 02:00:59;;;;;;;2.25;1.75;;;23.60;33.60;;;;;;5016486;28;20214;-47
2021/06/03 02:03:25;;;;;;;2.20;1.50;;;23.60;33.60;;;;;;5023779;28;20222;-50
2021/06/03 02:05:51;;;;;;;1.52;1.42;;;23.60;33.60;;;;;;5026466;28;20307;-52
2021/06/03 02:08:17;;;;;;;1.65;1.55;;;23.60;33.60;;;;;;5010266;28;20619;-47
2021/06/03 02:10:43;;;;;;;1.60;1.50;;;23.60;33.60;;;;;;5029091;28;20337;-51
2021/06/03 02:13:09;;;;;;;1.58;1.48;;;23.60;33.60;;;;;;5020288;28;20200;-49
2021/06/03 02:15:35;;;;;;;1.70;1.60;;;23.60;33.60;;;;;;5023465;28;20643;-47
2021/06/03 02:18:01;;;;;;;1.90;1.40;;;23.60;33.60;;;;;;5021530;28;20285;-48
2021/06/03 02:20:27;;;;;;;1.92;1.70;;;23.60;33.60;;;;;;5019283;28;20252;-52
2021/06/03 02:22:53;;;;;;;4.40;1.85;;;23.60;33.60;;;;;;5019277;28;20219;-48
2021/06/03 02:25:19;;;;;;;2.28;1.50;;;23.60;33.60;;;;;;5020297;28;21005;-49
2021/06/03 02:27:45;;;;;;;1.92;1.50;;;23.60;33.60;;;;;;5017841;28;20246;-45
2021/06/03 02:30:11;;;;;;;1.60;1.50;;;23.60;33.60;;;;;;5009281;28;20245;-48
2021/06/03 02:32:37;;;;;;;2.17;1.50;;;23.60;33.60;;;;;;5011959;28;20207;-48
2021/06/03 02:35:03;;;;;;;2.67;1.67;;;23.60;33.60;;;;;;5019693;28;20198;-49
2021/06/03 02:37:29;;;;;;;1.95;1.45;;;23.60;33.60;;;;;;5019838;28;20206;-50
2021/06/03 02:39:55;;;;;;;1.60;1.50;;;23.60;33.60;;;;;;5011890;28;20223;-47
2021/06/03 02:42:21;;;;;;;2.13;1.50;;;23.60;33.60;;;;;;5012354;28;20218;-46
2021/06/03 02:44:47;;;;;;;2.20;1.70;;;23.60;33.60;;;;;;5027467;28;20536;-50
2021/06/03 02:47:13;;;;;;;1.63;1.52;;;23.60;33.60;;;;;;5020309;28;20211;-50
2021/06/03 02:49:39;;;;;;;1.92;1.73;;;23.60;33.60;;;;;;5015081;28;20229;-51
2021/06/03 02:52:05;;;;;;;1.63;1.52;;;23.60;33.60;;;;;;5012487;28;20203;-48
2021/06/03 02:54:31;;;;;;;1.85;1.52;;;23.60;33.60;;;;;;5010290;28;20230;-45
2021/06/03 02:56:57;;;;;;;1.48;1.38;;;23.60;33.60;;;;;;5011707;28;20207;-49
2021/06/03 02:59:23;;;;;;;1.80;1.70;;;23.60;33.60;;;;;;5011359;28;20223;-49
2021/06/03 03:01:49;;;;;;;1.38;1.27;;;23.60;33.60;;;;;;5017144;28;20203;-48
2021/06/03 03:04:15;;;;;;;1.70;1.60;;;23.60;33.60;;;;;;5010057;28;20721;-46
2021/06/03 03:06:41;;;;;;;1.92;1.83;;;23.60;33.60;;;;;;5007198;28;20262;-48
2021/06/03 03:09:07;;;;;;;1.85;1.75;;;23.60;33.60;;;;;;5010424;28;20223;-47
2021/06/03 03:11:33;;;;;;;3.00;1.88;;;23.60;33.60;;;;;;5019686;28;20207;-46
2021/06/03 03:13:59;;;;;;;1.60;1.50;;;23.60;33.60;;;;;;5010911;28;20214;-46
2021/06/03 03:16:25;;;;;;;2.83;1.70;;;23.60;33.70;;;;;;5012425;28;20247;-47
2021/06/03 03:18:51;;;;;;;1.60;1.50;;;23.60;33.70;;;;;;5011331;28;20199;-47
2021/06/03 03:21:16;;;;;;;1.92;1.60;;;23.60;33.70;;;;;;5013781;28;20206;-48
2021/06/03 03:23:42;;;;;;;1.70;1.60;;;23.60;33.70;;;;;;5011052;28;20630;-50
2021/06/03 03:26:08;;;;;;;1.60;1.50;;;23.60;33.70;;;;;;5016159;28;20199;-47
2021/06/03 03:28:34;;;;;;;1.70;1.60;;;23.60;33.70;;;;;;5011385;28;20214;-50
2021/06/03 03:31:00;;;;;;;1.60;1.50;;;23.60;33.70;;;;;;5014746;28;20207;-48
2021/06/03 03:33:26;;;;;;;1.90;1.70;;;23.60;33.70;;;;;;5011372;28;20210;-49
2021/06/03 03:35:52;;;;;;;1.70;1.60;;;23.60;33.70;;;;;;5014618;28;20539;-49
2021/06/03 03:38:18;;;;;;;1.60;1.50;;;23.60;33.70;;;;;;5011629;28;20210;-50
2021/06/03 03:40:44;;;;;;;1.77;1.67;;;23.60;33.70;;;;;;5011875;28;20713;-51
2021/06/03 03:43:10;;;;;;;1.50;1.40;;;23.60;33.70;;;;;;5009985;28;20214;-51
2021/06/03 03:45:36;;;;;;;1.70;1.60;;;23.60;33.70;;;;;;5015059;28;20207;-49
2021/06/03 03:48:03;;;;;;;1.65;1.42;;;23.60;33.70;;;;;;5011435;28;20666;-46
2021/06/03 03:50:29;;;;;;;1.90;1.80;;;23.60;33.70;;;;;;5016015;28;20253;-53
2021/06/03 03:52:55;;;;;;;1.92;1.73;;;23.50;33.70;;;;;;5010701;28;20223;-54
2021/06/03 03:55:21;;;;;;;1.90;1.77;;;23.50;33.70;;;;;;5015761;28;20214;-52
2021/06/03 03:57:47;;;;;;;1.60;1.50;;;23.60;33.80;;;;;;5010978;28;20203;-52
2021/06/03 04:00:13;;;;;;;1.70;1.60;;;23.60;33.70;;;;;;5024793;28;20227;-50
2021/06/03 04:02:39;;;;;;;1.55;1.45;;;23.50;33.70;;;;;;5012386;28;20230;-47
2021/06/03 04:05:05;;;;;;;1.60;1.50;;;23.60;33.90;;;;;;5017789;28;20230;-51
2021/06/03 04:07:31;;;;;;;1.60;1.50;;;23.50;34.00;;;;;;5011200;28;20199;-46
2021/06/03 04:09:56;;;;;;;1.45;1.35;;;23.50;34.00;;;;;;5023138;28;20257;-52
2021/06/03 04:12:22;;;;;;;1.52;1.45;;;23.50;34.00;;;;;;5015184;28;20211;-49
2021/06/03 04:14:48;;;;;;;1.67;1.58;;;23.50;34.10;;;;;;5021561;28;20210;-46
2021/06/03 04:17:14;;;;;;;1.67;1.52;;;23.50;34.10;;;;;;5016193;28;20516;-49
2021/06/03 04:19:40;;;;;;;2.00;1.60;;;23.50;34.10;;;;;;5019086;28;20226;-51
2021/06/03 04:22:06;;;;;;;1.63;1.40;;;23.50;34.10;;;;;;5014795;28;20199;-49
2021/06/03 04:24:32;;;;;;;1.50;1.40;;;23.50;34.10;;;;;;5017895;28;20226;-44
2021/06/03 04:26:58;;;;;;;1.83;1.73;;;23.50;34.10;;;;;;5022975;28;20195;-46
2021/06/03 04:29:24;;;;;;;2.10;1.60;;;23.50;34.10;;;;;;5020117;28;20226;-45
2021/06/03 04:31:50;;;;;;;2.58;1.33;;;23.50;34.10;;;;;;5026020;28;20224;-47
2021/06/03 04:34:16;;;;;;;1.42;1.33;;;23.50;34.20;;;;;;5018881;28;20663;-45
2021/06/03 04:36:42;;;;;;;1.75;1.40;;;23.50;34.20;;;;;;5027006;28;20207;-47
2021/06/03 04:39:08;;;;;;;1.80;1.70;;;23.50;34.80;;;;;;5013907;28;20317;-48
2021/06/03 04:41:34;;;;;;;1.90;1.70;;;23.50;34.20;;;;;;5014282;28;20214;-50
2021/06/03 04:44:00;;;;;;;1.77;1.67;;;23.50;34.20;;;;;;5019874;28;20459;-46
2021/06/03 04:46:26;;;;;;;2.03;1.77;;;23.50;34.10;;;;;;5019770;28;20211;-51
2021/06/03 04:48:52;;;;;;;1.65;1.55;;;23.50;34.10;;;;;;5022952;28;20630;-51
2021/06/03 04:51:18;;;;;;;1.55;1.45;;;23.60;34.20;;;;;;5032075;28;20214;-49
2021/06/03 04:53:44;;;;;;;1.60;1.40;;;23.50;34.10;;;;;;5020642;28;20232;-45
2021/06/03 04:56:10;;;;;;;1.67;1.58;;;23.50;34.10;;;;;;5015441;28;20591;-46
2021/06/03 04:58:36;;;;;;;1.60;1.50;;;23.50;34.10;;;;;;5021589;28;20234;-50
2021/06/03 05:01:02;;;;;;;1.60;1.50;;;23.50;34.10;;;;;;5025802;28;20221;-53
2021/06/03 05:03:28;;;;;;;1.55;1.45;;;23.50;34.10;;;;;;5021723;28;20221;-47
2021/06/03 05:05:54;;;;;;;1.70;1.60;;;23.50;34.10;;;;;;5031063;28;20226;-50
2021/06/03 05:08:20;;;;;;;1.60;1.50;;;23.50;34.10;;;;;;5010069;28;20211;-44
2021/06/03 05:10:46;;;;;;;1.63;1.50;;;23.50;34.10;;;;;;5013291;28;20207;-50
2021/06/03 05:13:12;;;;;;;1.60;1.45;;;23.50;34.10;;;;;;5018866;28;20531;-48
2021/06/03 05:15:38;;;;;;;2.10;1.65;;;23.50;34.10;;;;;;5026911;28;20207;-46
2021/06/03 05:18:04;;;;;;;1.45;1.35;;;23.50;34.10;;;;;;5015903;28;20217;-47
2021/06/03 05:20:30;;;;;;;1.50;1.30;;;23.50;34.10;;;;;;5012635;28;20249;-47
2021/06/03 05:22:56;;;;;;;2.35;1.50;;;23.60;34.20;;;;;;5032254;28;20206;-45
2021/06/03 05:25:22;;;;;;;2.15;1.50;;;23.50;34.10;;;;;;5017440;28;20243;-46
2021/06/03 05:27:48;;;;;;;2.30;1.30;;;23.50;34.10;;;;;;5029364;28;20266;-43
2021/06/03 05:30:14;;;;;;;1.75;1.63;;;23.50;34.10;;;;;;5022524;28;20230;-47
2021/06/03 05:32:40;;;;;;;1.40;1.30;;;23.60;34.20;;;;;;5024725;28;20893;-49
2021/06/03 05:35:06;;;;;;;1.60;1.50;;;23.50;34.10;;;;;;5013273;28;20207;-47
2021/06/03 05:37:32;;;;;;;1.95;1.45;;;23.50;34.10;;;;;;5011158;28;20670;-48
2021/06/03 05:39:58;;;;;;;1.60;1.40;;;23.50;34.10;;;;;;5012065;28;20218;-46
2021/06/03 05:42:24;;;;;;;1.40;1.30;;;23.50;34.00;;;;;;5028086;28;20207;-47
2021/06/03 05:44:50;;;;;;;1.70;1.60;;;23.50;34.10;;;;;;5026774;28;20243;-47
2021/06/03 05:47:16;;;;;;;1.60;1.50;;;23.50;34.10;;;;;;5012802;28;20545;-49
2021/06/03 05:49:42;;;;;;;1.40;1.30;;;23.60;34.10;;;;;;5023858;28;20245;-44
2021/06/03 05:52:08;;;;;;;1.70;1.60;;;23.50;34.00;;;;;;5017686;28;20199;-45
2021/06/03 05:54:34;;;;;;;1.60;1.50;;;23.60;34.10;;;;;;5012213;28;20217;-46
2021/06/03 05:57:00;;;;;;;1.67;1.50;;;23.60;34.20;;;;;;5014838;28;20199;-43
2021/06/03 05:59:26;;;;;;;1.42;1.33;;;23.60;34.10;;;;;;5011285;28;20731;-47
2021/06/03 06:01:57;;;;;;;1.48;1.38;;;23.60;34.10;;;;;;5013409;28;20212;-47
2021/06/03 06:07:03;;;;;;;1.70;1.60;;;23.60;34.10;;;;;;5015972;28;20207;-46
2021/06/03 06:09:29;;;;;;;1.50;1.40;;;23.60;34.10;;;;;;5011171;28;20254;-45
2021/06/03 06:11:55;;;;;;;1.65;1.55;;;23.60;34.10;;;;;;5024615;28;20206;-46
2021/06/03 06:14:21;;;;;;;1.50;1.40;;;23.60;34.00;;;;;;5032252;28;20198;-46
2021/06/03 06:16:47;;;;;;;2.38;1.38;;;23.60;34.00;;;;;;5030294;28;20244;-48
2021/06/03 06:19:13;;;;;;;2.13;1.42;;;23.60;34.00;;;;;;5011679;28;20223;-47
2021/06/03 06:21:39;;;;;;;1.77;1.67;;;23.60;34.70;;;;;;5013799;28;20210;-47
2021/06/03 06:24:05;;;;;;;1.52;1.42;;;23.60;34.00;;;;;;5028786;28;20230;-50
2021/06/03 06:26:33;;;;;;;1.77;1.48;;;23.60;34.00;;;;;;5029793;28;20617;-46
2021/06/03 06:28:59;;;;;;;1.67;1.52;;;23.60;33.90;;;;;;5013498;28;20688;-44
2021/06/03 06:31:25;;;;;;;1.40;1.30;;;23.60;33.90;;;;;;5024172;28;20217;-47
2021/06/03 06:33:51;;;;;;;1.90;1.80;;;23.60;33.90;;;;;;5031546;28;20218;-47
2021/06/03 06:36:17;;;;;;;2.97;1.60;;;23.60;34.00;;;;;;5030086;28;20206;-47
2021/06/03 06:38:43;;;;;;;2.10;1.80;;;23.60;33.90;;;;;;5021693;28;20694;-46
2021/06/03 06:41:08;;;;;;;1.63;1.52;;;23.60;33.90;;;;;;5028492;28;20237;-48
2021/06/03 06:43:34;;;;;;;1.48;1.38;;;23.60;33.90;;;;;;5012596;28;20205;-44
2021/06/03 06:46:01;;;;;;;1.50;1.40;;;23.60;33.80;;;;;;5010162;28;20643;-50
2021/06/03 06:48:26;;;;;;;1.52;1.33;;;23.60;33.90;;;;;;5011977;28;20218;-45
2021/06/03 06:50:52;;;;;;;1.73;1.60;;;23.60;33.90;;;;;;5028570;28;20548;-48
2021/06/03 06:53:18;;;;;;;1.95;1.40;;;23.60;33.80;;;;;;5011025;28;20211;-46
2021/06/03 06:55:44;;;;;;;1.30;1.20;;;23.60;33.80;;;;;;5017458;28;20284;-51
2021/06/03 06:58:10;;;;;;;1.70;1.50;;;23.60;33.90;;;;;;5011302;28;20219;-48
2021/06/03 07:00:36;;;;;;;3.30;1.50;;;23.60;33.70;;;;;;5020484;28;20202;-48
2021/06/03 07:03:02;;;;;;;1.85;1.52;;;23.60;33.80;;;;;;5012782;28;20204;-48
2021/06/03 07:05:28;;;;;;;2.17;1.60;;;23.60;33.70;;;;;;5015505;28;20238;-47
2021/06/03 07:07:54;;;;;;;1.75;1.35;;;23.60;33.70;;;;;;5007337;28;20711;-48
2021/06/03 07:10:20;;;;;;;2.05;1.50;;;23.60;33.80;;;;;;5007888;28;20279;-51
2021/06/03 07:12:46;;;;;;;4.22;1.80;;;23.70;34.20;;;;;;5012947;28;20199;-47
2021/06/03 07:15:12;;;;;;;2.70;1.65;;;23.70;34.60;;;;;;5019443;28;20210;-54
2021/06/03 07:17:38;;;;;;;4.78;1.73;;;23.70;35.00;;;;;;5021959;28;20199;-45
2021/06/03 07:20:06;;;;;;;2.92;1.80;;;23.70;34.90;;;;;;5014866;28;20623;-50
2021/06/03 07:22:32;;;;;;;2.63;1.63;;;23.70;34.40;;;;;;5024948;28;20225;-46
2021/06/03 07:24:58;;;;;;;2.83;1.40;;;23.70;34.50;;;;;;5011154;28;20231;-43
2021/06/03 07:27:24;;;;;;;7.35;1.90;;;23.80;34.40;;;;;;5009235;28;20264;-47
2021/06/03 07:29:50;;;;;;;8.05;2.30;;;23.80;37.10;;;;;;5008682;28;20237;-49
2021/06/03 07:32:16;;;;;;;8.23;2.25;;;23.80;37.30;;;;;;5009653;28;20210;-47
2021/06/03 07:34:42;;;;;;;11.73;3.15;;;23.80;37.90;;;;;;5004506;28;20623;-45
2021/06/03 07:37:08;;;;;;;6.65;2.15;;;23.80;37.60;;;;;;5003851;28;20214;-46
2021/06/03 07:39:34;;;;;;;7.13;2.25;;;23.80;37.10;;;;;;5001483;28;20240;-48
2021/06/03 07:42:00;;;;;;;8.75;3.30;;;23.80;36.40;;;;;;5021066;28;20202;-46
2021/06/03 07:44:26;;;;;;;6.90;2.10;;;23.80;36.90;;;;;;5019379;28;20249;-48
2021/06/03 07:46:52;;;;;;;3.83;1.92;;;23.80;37.20;;;;;;5004097;28;20291;-50
2021/06/03 07:49:18;;;;;;;8.15;3.50;;;23.80;36.90;;;;;;5009801;28;20265;-47
2021/06/03 07:51:44;;;;;;;3.60;2.92;;;23.60;39.90;;;;;;5015514;28;20768;-53
2021/06/03 07:54:10;;;;;;;6.93;2.83;;;22.70;37.00;;;;;;5012461;28;20210;-51
2021/06/03 07:56:36;;;;;;;3.90;2.60;;;22.30;38.40;;;;;;5011183;28;20200;-46
2021/06/03 07:59:02;;;;;;;5.68;2.72;;;22.80;40.10;;;;;;5008457;28;20215;-52
2021/06/03 08:01:28;;;;;;;3.15;2.60;;;23.10;38.90;;;;;;5017197;28;20191;-49
2021/06/03 08:03:54;;;;;;;4.38;2.88;;;23.30;38.70;;;;;;5018396;28;20321;-46
2021/06/03 08:06:20;;;;;;;4.45;2.40;;;23.40;38.40;;;;;;5025489;28;20203;-48
2021/06/03 08:08:46;;;;;;;5.30;2.78;;;23.50;38.50;;;;;;5014040;28;20237;-49
2021/06/03 08:11:12;;;;;;;4.22;2.85;;;23.60;40.50;;;;;;5011988;28;20211;-51
2021/06/03 08:13:38;;;;;;;5.20;2.80;;;23.60;40.60;;;;;;5017760;28;20208;-47
2021/06/03 08:16:04;;;;;;;5.10;2.53;;;23.60;41.00;;;;;;5012262;28;20210;-47
2021/06/03 08:18:30;;;;;;;4.65;2.67;;;23.70;42.10;;;;;;5006595;28;20226;-46
2021/06/03 08:20:57;;;;;;;2.60;2.40;;;23.70;42.60;;;;;;5013916;28;20218;-49
2021/06/03 08:23:23;;;;;;;3.33;2.55;;;23.70;40.70;;;;;;5013135;28;20229;-49
2021/06/03 08:25:49;;;;;;;2.78;2.40;;;23.70;41.00;;;;;;5010220;28;20234;-48
2021/06/03 08:28:15;;;;;;;5.20;2.70;;;23.70;40.80;;;;;;5017095;28;20238;-49
2021/06/03 08:30:41;;;;;;;2.58;2.28;;;23.70;40.40;;;;;;5016489;28;20199;-51
2021/06/03 08:33:07;;;;;;;3.75;2.60;;;23.70;40.10;;;;;;4999653;28;20214;-52
2021/06/03 08:35:33;;;;;;;3.03;2.50;;;23.70;40.10;;;;;;5007608;28;20207;-45
2021/06/03 08:38:00;;;;;;;2.63;2.00;;;23.70;40.00;;;;;;5009840;28;20238;-46
2021/06/03 08:40:26;;;;;;;2.72;2.28;;;23.70;40.70;;;;;;5011214;28;20200;-47
2021/06/03 08:42:52;;;;;;;5.70;2.70;;;23.80;40.30;;;;;;4994332;28;20219;-45
2021/06/03 08:45:18;;;;;;;2.88;2.17;;;23.80;40.30;;;;;;5008588;28;20258;-56
2021/06/03 08:47:44;;;;;;;3.88;2.05;;;23.80;40.70;;;;;;5023332;28;20222;-57
2021/06/03 08:50:10;;;;;;;2.58;2.10;;;23.80;40.90;;;;;;5022648;28;20689;-50
2021/06/03 08:52:36;;;;;;;4.28;2.38;;;23.80;40.70;;;;;;5020335;28;20203;-47
2021/06/03 08:55:03;;;;;;;2.97;2.20;;;23.80;40.00;;;;;;5017163;28;20201;-51
2021/06/03 08:57:28;;;;;;;2.97;2.00;;;23.80;39.90;;;;;;5021502;28;20215;-53
2021/06/03 08:59:54;;;;;;;3.30;2.10;;;23.80;39.40;;;;;;5016663;28;20262;-49
2021/06/03 09:02:20;;;;;;;4.85;2.20;;;23.80;39.10;;;;;;5012928;28;20207;-50
2021/06/03 09:04:46;;;;;;;3.13;2.30;;;23.80;39.80;;;;;;5011304;28;20694;-51
2021/06/03 09:07:12;;;;;;;2.20;2.05;;;23.90;39.20;;;;;;5014225;28;20277;-49
2021/06/03 09:09:38;;;;;;;3.15;2.05;;;23.90;38.70;;;;;;5006302;28;20195;-50
2021/06/03 09:12:04;;;;;;;2.63;2.42;;;23.90;38.70;;;;;;5002546;28;20215;-52
2021/06/03 09:14:30;;;;;;;3.42;2.45;;;23.90;39.00;;;;;;5012061;28;20275;-47
2021/06/03 09:16:56;;;;;;;3.13;2.50;;;23.90;40.70;;;;;;5008898;28;20265;-47
2021/06/03 09:19:22;;;;;;;3.05;2.85;;;23.90;38.90;;;;;;5011225;28;20207;-46
2021/06/03 09:21:48;;;;;;;3.17;2.20;;;23.90;39.30;;;;;;5010880;28;20729;-49
2021/06/03 09:24:14;;;;;;;2.83;2.60;;;23.90;39.00;;;;;;5029039;28;20234;-45
2021/06/03 09:26:40;;;;;;;3.40;2.88;;;23.90;39.80;;;;;;5020457;28;20206;-47
2021/06/03 09:29:07;;;;;;;3.35;2.92;;;23.90;41.80;;;;;;5019886;28;20500;-49
2021/06/03 09:31:33;;;;;;;3.30;3.00;;;23.90;39.50;;;;;;5016664;28;20210;-45
2021/06/03 09:33:59;;;;;;;2.85;2.65;;;23.90;41.30;;;;;;5005769;28;20586;-45
2021/06/03 09:36:25;;;;;;;3.10;2.80;;;23.90;40.40;;;;;;4993581;28;20204;-48
2021/06/03 09:38:51;;;;;;;3.08;2.78;;;23.90;39.50;;;;;;4996183;28;20730;-48
2021/06/03 09:41:17;;;;;;;3.10;2.80;;;23.90;40.00;;;;;;4992298;28;20203;-47
2021/06/03 09:43:43;;;;;;;4.53;2.72;;;23.90;40.10;;;;;;4992650;28;20211;-49
2021/06/03 09:46:09;;;;;;;4.47;3.08;;;23.90;40.30;;;;;;5004199;28;20203;-50
2021/06/03 09:48:35;;;;;;;3.45;2.78;;;23.90;40.60;;;;;;5009568;28;20225;-46
2021/06/03 09:51:01;;;;;;;3.25;2.90;;;23.90;40.60;;;;;;5011250;28;20214;-46
2021/06/03 09:53:28;;;;;;;3.58;3.08;;;23.90;40.30;;;;;;5012037;28;20307;-47
2021/06/03 09:55:54;;;;;;;2.92;2.72;;;23.90;40.70;;;;;;5011963;28;20207;-49
2021/06/03 09:58:20;;;;;;;3.60;2.95;;;23.90;41.00;;;;;;5011825;28;20250;-48
2021/06/03 10:00:48;;;;;;;4.15;3.40;;;23.90;40.50;;;;;;5011310;28;20210;-47
2021/06/03 10:03:14;;;;;;;3.53;3.22;;;23.90;40.50;;;;;;5011096;28;20277;-48
2021/06/03 10:05:40;;;;;;;2.80;2.60;;;23.90;40.60;;;;;;5010962;28;20250;-51
2021/06/03 10:08:06;;;;;;;3.83;3.08;;;23.90;40.50;;;;;;5011329;28;20223;-48
2021/06/03 10:10:32;;;;;;;3.20;2.90;;;23.90;40.50;;;;;;5011074;28;20199;-46
2021/06/03 10:12:58;;;;;;;3.60;2.58;;;23.90;40.90;;;;;;5011731;28;20299;-49
2021/06/03 10:15:24;;;;;;;4.18;2.88;;;23.90;40.70;;;;;;5001119;28;20269;-47
2021/06/03 10:17:50;;;;;;;3.88;2.70;;;23.90;40.00;;;;;;5020973;28;20231;-54
2021/06/03 10:20:16;;;;;;;3.08;2.85;;;23.90;40.30;;;;;;5004182;28;20222;-56
2021/06/03 10:22:42;;;;;;;3.08;2.78;;;23.90;40.00;;;;;;5020258;28;20213;-55
2021/06/03 10:25:08;;;;;;;3.10;2.90;;;23.90;39.80;;;;;;5016380;28;20658;-51
2021/06/03 10:27:34;;;;;;;4.70;2.95;;;23.90;39.60;;;;;;5010730;28;20222;-48
2021/06/03 10:30:00;;;;;;;4.63;3.10;;;23.90;40.20;;;;;;5028905;28;20722;-50
2021/06/03 10:32:26;;;;;;;5.60;3.10;;;23.90;40.20;;;;;;5022984;28;20203;-48
2021/06/03 10:34:53;;;;;;;4.57;3.70;;;23.90;40.30;;;;;;5025368;28;20624;-58
2021/06/03 10:37:19;;;;;;;5.70;3.33;;;23.90;40.60;;;;;;5020589;28;20691;-54
2021/06/03 10:39:44;;;;;;;3.83;3.40;;;23.90;40.70;;;;;;5030641;28;20202;-49
2021/06/03 10:42:11;;;;;;;7.70;3.80;;;23.90;40.60;;;;;;5014027;28;20554;-50
2021/06/03 10:44:37;;;;;;;4.28;3.40;;;23.90;40.90;;;;;;5015124;28;20229;-49
2021/06/03 10:47:03;;;;;;;4.28;3.55;;;23.90;40.60;;;;;;5009196;28;20218;-51
2021/06/03 10:49:31;;;;;;;5.10;3.40;;;23.90;40.80;;;;;;5011608;28;20195;-50
2021/06/03 10:51:57;;;;;;;3.72;3.30;;;23.90;40.60;;;;;;5010209;28;20206;-54
2021/06/03 10:54:23;;;;;;;5.35;3.47;;;23.90;40.80;;;;;;5021482;28;20606;-53
2021/06/03 10:56:49;;;;;;;4.97;3.40;;;23.90;40.60;;;;;;5021456;28;20238;-50
2021/06/03 10:59:15;;;;;;;3.67;3.30;;;23.90;40.40;;;;;;5008166;28;20212;-53
2021/06/03 11:01:41;;;;;;;5.72;3.28;;;23.90;40.50;;;;;;5007123;28;20267;-50
2021/06/03 11:04:10;;;;;;;3.60;3.22;;;24.00;40.60;;;;;;5008027;28;20234;-48
2021/06/03 11:06:36;;;;;;;5.85;3.42;;;24.00;40.10;;;;;;5008562;28;20229;-47
2021/06/03 11:09:03;;;;;;;4.60;3.00;;;24.00;40.10;;;;;;5009124;28;20203;-48
2021/06/03 11:11:29;;;;;;;3.90;3.38;;;24.00;40.40;;;;;;5008807;28;20211;-52
2021/06/03 11:13:55;;;;;;;4.45;3.20;;;24.00;40.60;;;;;;5008845;28;20338;-49
2021/06/03 11:16:21;;;;;;;4.53;3.55;;;24.00;40.70;;;;;;5010595;28;20227;-46
2021/06/03 11:18:47;;;;;;;5.25;3.40;;;23.90;40.80;;;;;;5011134;28;20218;-48
2021/06/03 11:21:13;;;;;;;3.72;3.35;;;24.00;40.90;;;;;;5029207;28;20284;-49
2021/06/03 11:23:41;;;;;;;3.95;3.47;;;23.90;40.40;;;;;;5010885;28;20630;-50
2021/06/03 11:26:07;;;;;;;3.38;3.08;;;23.90;41.30;;;;;;5006279;28;20224;-53
2021/06/03 11:28:33;;;;;;;4.20;3.30;;;24.00;41.10;;;;;;5010621;28;20691;-50
2021/06/03 11:30:59;;;;;;;3.70;3.40;;;24.00;40.50;;;;;;5017842;28;20213;-48
2021/06/03 11:33:25;;;;;;;6.00;3.53;;;24.00;40.50;;;;;;5020963;28;20635;-53
2021/06/03 11:35:51;;;;;;;3.50;3.20;;;24.00;40.80;;;;;;5011746;28;20206;-51
2021/06/03 11:38:17;;;;;;;8.10;4.68;;;24.00;41.20;;;;;;5014690;28;20670;-52
2021/06/03 11:40:43;;;;;;;6.20;4.75;;;24.00;41.00;;;;;;5032110;28;20198;-51
2021/06/03 11:43:09;;;;;;;4.70;3.95;;;24.00;39.00;;;;;;5020929;28;20609;-47
2021/06/03 11:45:36;;;;;;;7.13;4.18;;;24.00;39.60;;;;;;5013600;28;20270;-49
2021/06/03 11:48:02;;;;;;;5.43;4.22;;;24.10;39.60;;;;;;5010842;28;20302;-48
2021/06/03 11:50:28;;;;;;;7.18;4.70;;;24.00;40.20;;;;;;5017276;28;20388;-50
2021/06/03 11:52:54;;;;;;;8.13;4.50;;;24.00;41.30;;;;;;5015135;28;20624;-50
2021/06/03 11:55:20;;;;;;;7.63;4.90;;;24.00;41.70;;;;;;5012149;28;20207;-46
2021/06/03 11:57:46;;;;;;;9.60;4.45;;;24.10;42.70;;;;;;5011578;28;20223;-50
2021/06/03 12:00:12;;;;;;;7.53;4.45;;;24.00;42.60;;;;;;5017695;28;20198;-47
2021/06/03 12:02:38;;;;;;;6.07;3.83;;;24.00;42.40;;;;;;5011890;28;20702;-46
2021/06/03 12:05:04;;;;;;;5.20;3.85;;;24.00;42.60;;;;;;5010575;28;20235;-48
2021/06/03 12:07:30;;;;;;;6.68;4.25;;;24.00;42.30;;;;;;5013946;28;20234;-48
2021/06/03 12:09:56;;;;;;;4.40;3.97;;;24.00;43.00;;;;;;5013078;28;20247;-50
2021/06/03 12:12:22;;;;;;;7.45;4.07;;;24.00;43.00;;;;;;5011872;28;20674;-50
2021/06/03 12:14:48;;;;;;;7.22;4.07;;;24.00;42.60;;;;;;5013183;28;20206;-48
2021/06/03 12:17:14;;;;;;;4.55;3.80;;;24.00;42.90;;;;;;5013630;28;20223;-47
2021/06/03 12:19:40;;;;;;;4.68;4.28;;;24.00;42.40;;;;;;5019034;28;20286;-49
2021/06/03 12:22:06;;;;;;;6.32;4.00;;;24.00;42.50;;;;;;5014827;28;20659;-50
2021/06/03 12:24:32;;;;;;;6.68;4.45;;;24.00;42.60;;;;;;5015113;28;20254;-50
2021/06/03 12:26:58;;;;;;;5.85;3.65;;;24.00;42.90;;;;;;5010783;28;20223;-49
2021/06/03 12:29:24;;;;;;;7.78;4.65;;;24.00;42.20;;;;;;5010536;28;20207;-48
2021/06/03 12:31:50;;;;;;;3.95;3.60;;;24.00;42.60;;;;;;5012683;28;20222;-51
2021/06/03 12:34:16;;;;;;;7.47;4.15;;;24.00;42.20;;;;;;5018406;28;20214;-51
2021/06/03 12:36:42;;;;;;;5.72;3.78;;;24.00;42.10;;;;;;5012504;28;20605;-48
2021/06/03 12:39:08;;;;;;;3.97;3.67;;;24.00;42.30;;;;;;5011468;28;20211;-48
2021/06/03 12:41:34;;;;;;;5.70;4.05;;;24.00;41.90;;;;;;5023893;28;20203;-47
2021/06/03 12:44:00;;;;;;;5.28;3.88;;;24.00;41.80;;;;;;5012997;28;20318;-47